Time;durP1;ratioP1;P1;durP2;ratioP2;P2;SDS_P1;SDS_P2;PMS_P1;PMS_P2;Temp;Humidity;BMP_temperature;BMP_pressure;BME280_temperature;BME280_humidity;BME280_pressure;Samples;Min_cycle;Max_cycle;Signal;HPM_P1;HPM_P2
2023/03/27 00:02:23;;;;;;;11.02;1.67;;;6.30;99.90;;;;;;5095650;28;20101;-80
2023/03/27 00:04:49;;;;;;;4.88;1.15;;;6.30;99.90;;;;;;5096666;28;20040;-80
2023/03/27 00:07:18;;;;;;;4.75;1.40;;;6.30;99.90;;;;;;5095170;28;20062;-80
2023/03/27 00:09:45;;;;;;;4.53;1.17;;;6.30;99.90;;;;;;5094389;28;20040;-80
2023/03/27 00:12:12;;;;;;;3.53;1.20;;;6.20;99.90;;;;;;5096594;28;20044;-80
2023/03/27 00:14:39;;;;;;;5.20;1.17;;;6.20;99.90;;;;;;5095577;28;20458;-80
2023/03/27 00:17:05;;;;;;;3.10;1.10;;;6.30;99.90;;;;;;5094000;28;20066;-80
2023/03/27 00:19:32;;;;;;;5.38;1.60;;;6.30;99.90;;;;;;5095934;28;20049;-80
2023/03/27 00:21:59;;;;;;;5.28;1.38;;;6.20;99.90;;;;;;5095312;28;20048;-81
2023/03/27 00:24:26;;;;;;;5.82;1.20;;;6.20;99.90;;;;;;5096009;28;20111;-80
2023/03/27 00:26:53;;;;;;;6.72;1.35;;;6.30;99.90;;;;;;5095869;28;20036;-80
2023/03/27 00:29:20;;;;;;;4.22;1.23;;;6.30;99.90;;;;;;5092119;28;20040;-80
2023/03/27 00:31:47;;;;;;;3.78;1.25;;;6.30;99.90;;;;;;5094942;28;20032;-82
2023/03/27 00:34:13;;;;;;;2.63;1.10;;;6.20;99.90;;;;;;5096106;28;20040;-82
2023/03/27 00:36:42;;;;;;;6.38;1.77;;;6.30;99.90;;;;;;5093650;28;20461;-81
2023/03/27 00:39:09;;;;;;;5.63;1.20;;;6.20;99.90;;;;;;5095202;28;20074;-80
2023/03/27 00:41:35;;;;;;;4.32;1.27;;;6.20;99.90;;;;;;5094968;28;20118;-81
2023/03/27 00:44:03;;;;;;;5.40;1.13;;;6.20;99.90;;;;;;5077272;28;20131;-81
2023/03/27 00:46:31;;;;;;;12.05;1.45;;;6.20;99.90;;;;;;5094789;28;20036;-81
2023/03/27 00:48:58;;;;;;;7.57;1.65;;;6.20;99.90;;;;;;5093830;28;20439;-81
2023/03/27 00:51:25;;;;;;;4.00;1.20;;;6.20;99.90;;;;;;5094842;28;20040;-80
2023/03/27 00:53:52;;;;;;;9.35;1.50;;;6.20;99.90;;;;;;5094936;28;20423;-80
2023/03/27 00:56:18;;;;;;;5.88;1.45;;;6.20;99.90;;;;;;5110995;28;20051;-80
2023/03/27 00:58:45;;;;;;;10.23;1.45;;;6.20;99.90;;;;;;5116119;28;20054;-80
2023/03/27 01:01:12;;;;;;;6.00;1.80;;;6.20;99.90;;;;;;5098371;28;20100;-80
2023/03/27 01:03:39;;;;;;;13.40;2.30;;;6.20;99.90;;;;;;5096867;28;20043;-80
2023/03/27 01:06:06;;;;;;;5.80;1.15;;;6.20;99.90;;;;;;5098209;28;20366;-80
2023/03/27 01:08:35;;;;;;;4.35;1.75;;;6.20;99.90;;;;;;5114273;28;20068;-80
2023/03/27 01:11:02;;;;;;;6.07;1.45;;;6.10;99.90;;;;;;5097831;28;20137;-80
2023/03/27 01:13:29;;;;;;;3.85;1.23;;;6.10;99.90;;;;;;5098372;28;20117;-80
2023/03/27 01:15:56;;;;;;;2.00;1.05;;;6.10;99.90;;;;;;5096966;28;20450;-80
2023/03/27 01:18:23;;;;;;;7.32;1.58;;;6.10;99.90;;;;;;5097522;28;20046;-80
2023/03/27 01:20:50;;;;;;;4.43;1.30;;;6.10;99.90;;;;;;5115844;28;20077;-80
2023/03/27 01:23:16;;;;;;;3.78;1.10;;;6.00;99.90;;;;;;5096484;28;20049;-80
2023/03/27 01:26:03;;;;;;;5.40;1.42;;;6.00;99.90;;;;;;5100670;28;20035;-80
2023/03/27 01:28:30;;;;;;;3.53;1.10;;;6.00;99.90;;;;;;5080534;28;20054;-80
2023/03/27 01:30:58;;;;;;;3.83;1.13;;;6.00;99.90;;;;;;5080859;28;20039;-80
2023/03/27 01:33:25;;;;;;;4.82;1.20;;;6.00;99.90;;;;;;5097866;28;20048;-80
2023/03/27 01:35:52;;;;;;;6.65;1.67;;;6.00;99.90;;;;;;5079552;28;20167;-80
2023/03/27 01:38:19;;;;;;;5.28;1.20;;;6.00;99.90;;;;;;5096385;28;20058;-80
2023/03/27 01:40:46;;;;;;;10.68;1.63;;;6.00;99.90;;;;;;5097549;28;20075;-80
2023/03/27 01:43:12;;;;;;;9.82;1.40;;;6.00;99.90;;;;;;5096100;28;20039;-80
2023/03/27 01:45:39;;;;;;;3.72;1.15;;;6.00;99.90;;;;;;5115378;28;20412;-80
2023/03/27 01:48:06;;;;;;;14.32;1.38;;;6.00;99.90;;;;;;5114755;28;20039;-80
2023/03/27 01:50:33;;;;;;;2.45;0.98;;;6.00;99.90;;;;;;5095912;28;20435;-80
2023/03/27 01:53:00;;;;;;;1.25;0.80;;;5.90;99.90;;;;;;5097216;28;20032;-80
2023/03/27 01:55:27;;;;;;;6.03;1.33;;;5.90;99.90;;;;;;5096067;28;20101;-80
2023/03/27 01:57:59;;;;;;;4.38;1.30;;;5.90;99.90;;;;;;5079915;28;20050;-80
2023/03/27 02:00:26;;;;;;;3.95;1.00;;;5.90;99.90;;;;;;5097059;28;20048;-80
2023/03/27 02:03:13;;;;;;;8.57;1.30;;;5.90;99.90;;;;;;5081862;28;20051;-80
2023/03/27 02:05:39;;;;;;;5.30;1.25;;;5.90;99.90;;;;;;5096906;28;20382;-80
2023/03/27 02:08:06;;;;;;;7.57;1.20;;;5.80;99.90;;;;;;5096474;28;20043;-80
2023/03/27 02:10:33;;;;;;;5.65;1.30;;;5.80;99.90;;;;;;5095863;28;20036;-80
2023/03/27 02:13:07;;;;;;;7.38;1.35;;;5.80;99.90;;;;;;5096819;28;20062;-79
2023/03/27 02:15:35;;;;;;;6.18;1.35;;;5.80;99.90;;;;;;5095899;28;20055;-80
2023/03/27 02:18:05;;;;;;;5.60;1.98;;;5.80;99.90;;;;;;5096683;28;20142;-80
2023/03/27 02:20:32;;;;;;;6.25;1.20;;;5.80;99.90;;;;;;5096863;28;20142;-80
2023/03/27 02:22:59;;;;;;;2.78;1.10;;;5.80;99.90;;;;;;5095771;28;20130;-80
2023/03/27 02:25:26;;;;;;;3.28;1.25;;;5.90;99.90;;;;;;5114790;28;20415;-80
2023/03/27 02:27:53;;;;;;;3.80;1.00;;;5.80;99.90;;;;;;5096120;28;20388;-80
2023/03/27 02:30:19;;;;;;;4.20;1.20;;;5.80;99.90;;;;;;5078869;28;20048;-80
2023/03/27 02:32:46;;;;;;;8.63;1.60;;;5.70;99.90;;;;;;5097141;28;20420;-80
2023/03/27 02:35:14;;;;;;;11.40;1.40;;;5.70;99.90;;;;;;5096035;28;20039;-80
2023/03/27 02:37:40;;;;;;;7.70;1.25;;;5.70;99.90;;;;;;5096098;28;20035;-80
2023/03/27 02:40:32;;;;;;;5.35;1.38;;;5.70;99.90;;;;;;5096487;28;20051;-80
2023/03/27 02:43:25;;;;;;;7.05;1.23;;;5.70;99.90;;;;;;5112793;28;20046;-80
2023/03/27 02:45:52;;;;;;;3.85;1.30;;;5.70;99.90;;;;;;5097090;28;20071;-80
2023/03/27 02:48:19;;;;;;;4.22;1.30;;;5.70;99.90;;;;;;5097512;28;20566;-80
2023/03/27 02:50:46;;;;;;;4.82;1.05;;;5.70;99.90;;;;;;5099242;28;20040;-80
2023/03/27 02:53:13;;;;;;;6.65;1.30;;;5.70;99.90;;;;;;5100332;28;20545;-80
2023/03/27 02:55:40;;;;;;;10.40;1.60;;;5.70;99.90;;;;;;5098979;28;20055;-80
2023/03/27 02:58:10;;;;;;;10.02;1.38;;;5.60;99.90;;;;;;5100362;28;20072;-80
2023/03/27 03:00:56;;;;;;;11.40;1.50;;;5.60;99.90;;;;;;5100174;28;20051;-80
2023/03/27 03:03:37;;;;;;;6.25;1.55;;;5.60;99.90;;;;;;5084236;28;20051;-80
2023/03/27 03:06:19;;;;;;;8.38;1.70;;;5.50;99.90;;;;;;5099777;28;20108;-80
2023/03/27 03:08:46;;;;;;;6.28;1.60;;;5.60;99.90;;;;;;5098980;28;20047;-80
2023/03/27 03:11:13;;;;;;;8.20;1.35;;;5.60;99.90;;;;;;5100116;28;20478;-80
2023/03/27 03:13:40;;;;;;;2.53;1.17;;;5.60;99.90;;;;;;5099806;28;20044;-80
2023/03/27 03:16:07;;;;;;;5.07;1.40;;;5.60;99.90;;;;;;5098522;28;20047;-80
2023/03/27 03:18:34;;;;;;;8.70;1.27;;;5.60;99.90;;;;;;5099818;28;20484;-80
2023/03/27 03:21:01;;;;;;;10.73;2.20;;;5.60;99.90;;;;;;5099964;28;20036;-80
2023/03/27 03:23:27;;;;;;;2.67;1.17;;;5.60;99.90;;;;;;5098705;28;20032;-80
2023/03/27 03:25:55;;;;;;;9.30;1.60;;;5.60;99.90;;;;;;5099812;28;20035;-80
2023/03/27 03:28:28;;;;;;;6.65;1.40;;;5.60;99.90;;;;;;5099733;28;20064;-80
2023/03/27 03:30:57;;;;;;;4.90;1.75;;;5.60;99.90;;;;;;5098573;28;20476;-80
2023/03/27 03:33:26;;;;;;;2.95;1.05;;;5.50;99.90;;;;;;5099824;28;20142;-80
2023/03/27 03:35:53;;;;;;;4.93;1.23;;;5.50;99.90;;;;;;5081728;28;20385;-80
2023/03/27 03:38:29;;;;;;;5.82;1.25;;;5.50;99.90;;;;;;5084049;28;20381;-80
2023/03/27 03:41:06;;;;;;;7.15;1.75;;;5.50;99.90;;;;;;5084158;28;20043;-80
2023/03/27 03:43:33;;;;;;;5.55;1.33;;;5.50;99.90;;;;;;5098178;28;20394;-80
2023/03/27 03:45:59;;;;;;;10.80;1.75;;;5.40;99.90;;;;;;5099476;28;20425;-80
2023/03/27 03:48:26;;;;;;;4.97;1.35;;;5.40;99.90;;;;;;5098894;28;20044;-80
2023/03/27 03:50:53;;;;;;;16.42;2.53;;;5.50;99.90;;;;;;5098117;28;20036;-80
2023/03/27 03:53:20;;;;;;;13.07;1.65;;;5.40;99.90;;;;;;5099324;28;20466;-80
2023/03/27 03:55:47;;;;;;;4.22;1.38;;;5.40;99.90;;;;;;5115917;28;20051;-80
2023/03/27 03:58:13;;;;;;;7.97;1.38;;;5.40;99.90;;;;;;5098808;28;20039;-80
2023/03/27 04:00:42;;;;;;;7.85;1.75;;;5.30;99.90;;;;;;5098236;28;20108;-80
2023/03/27 04:03:38;;;;;;;4.90;1.33;;;5.30;99.90;;;;;;5091013;28;20043;-80
2023/03/27 04:06:06;;;;;;;6.75;1.10;;;5.20;99.90;;;;;;5082184;28;20040;-80
2023/03/27 04:08:33;;;;;;;3.75;1.15;;;5.20;99.90;;;;;;5098220;28;20040;-80
2023/03/27 04:11:03;;;;;;;6.38;1.23;;;5.20;99.90;;;;;;5099706;28;20071;-79
2023/03/27 04:13:56;;;;;;;3.15;1.20;;;5.20;99.90;;;;;;5098976;28;20039;-80
2023/03/27 04:16:28;;;;;;;6.72;1.48;;;5.20;99.90;;;;;;5081465;28;20040;-80
2023/03/27 04:18:59;;;;;;;4.28;1.15;;;5.10;99.90;;;;;;5098906;28;20142;-80
2023/03/27 04:21:28;;;;;;;5.82;1.20;;;5.20;99.90;;;;;;5082319;28;20051;-80
2023/03/27 04:24:01;;;;;;;6.00;1.33;;;5.10;99.90;;;;;;5097470;28;20036;-80
2023/03/27 04:26:39;;;;;;;4.00;1.45;;;5.10;99.90;;;;;;5098106;28;20036;-80
2023/03/27 04:29:24;;;;;;;10.93;1.35;;;5.10;99.90;;;;;;5100471;28;20040;-80
2023/03/27 04:31:57;;;;;;;4.88;1.25;;;5.10;99.90;;;;;;5099904;28;20446;-80
2023/03/27 04:34:37;;;;;;;6.47;1.17;;;5.00;99.90;;;;;;5100545;28;20055;-80
2023/03/27 04:37:13;;;;;;;4.32;1.13;;;5.00;99.90;;;;;;5096890;28;20050;-80
2023/03/27 04:39:53;;;;;;;3.15;1.00;;;5.00;99.90;;;;;;5098120;28;20043;-80
2023/03/27 04:42:22;;;;;;;4.70;1.42;;;5.00;99.90;;;;;;5115043;28;20051;-80
2023/03/27 04:44:51;;;;;;;7.85;1.27;;;5.00;99.90;;;;;;5098140;28;20051;-80
2023/03/27 04:47:19;;;;;;;6.68;1.27;;;5.00;99.90;;;;;;5097692;28;20100;-80
2023/03/27 04:49:49;;;;;;;7.07;1.48;;;5.00;99.90;;;;;;5080640;28;20047;-80
2023/03/27 04:52:20;;;;;;;8.73;1.35;;;5.00;99.90;;;;;;5098412;28;20048;-80
2023/03/27 04:54:48;;;;;;;4.68;1.75;;;4.90;99.90;;;;;;5097975;28;20059;-80
2023/03/27 04:57:17;;;;;;;7.05;1.52;;;4.90;99.90;;;;;;5079798;28;20462;-80
2023/03/27 04:59:47;;;;;;;8.57;1.42;;;4.90;99.90;;;;;;5081509;28;20042;-80
2023/03/27 05:02:33;;;;;;;3.08;1.23;;;4.90;99.90;;;;;;5083931;28;20063;-80
2023/03/27 05:05:12;;;;;;;4.03;1.20;;;4.90;99.90;;;;;;5059402;28;20052;-80
2023/03/27 05:07:39;;;;;;;9.48;1.20;;;4.90;99.90;;;;;;5074906;28;20493;-80
2023/03/27 05:10:06;;;;;;;4.38;1.42;;;4.80;99.90;;;;;;5056794;28;20135;-79
2023/03/27 05:12:34;;;;;;;3.05;1.23;;;4.80;99.90;;;;;;5057024;28;20040;-80
2023/03/27 05:15:05;;;;;;;7.68;1.40;;;4.80;99.90;;;;;;5074060;28;20044;-80
2023/03/27 05:17:35;;;;;;;6.97;1.23;;;4.80;99.90;;;;;;5072598;28;20055;-80
2023/03/27 05:20:02;;;;;;;8.60;1.65;;;4.80;99.90;;;;;;5057512;28;20441;-81
2023/03/27 05:22:34;;;;;;;2.90;1.27;;;4.80;99.90;;;;;;5057105;28;20053;-81
2023/03/27 05:25:09;;;;;;;3.70;1.00;;;4.80;99.90;;;;;;5073855;28;20423;-81
2023/03/27 05:27:36;;;;;;;8.60;1.50;;;4.80;99.90;;;;;;5057017;28;20079;-81
2023/03/27 05:30:02;;;;;;;4.28;1.20;;;4.80;99.90;;;;;;5055830;28;20041;-81
2023/03/27 05:32:29;;;;;;;2.88;1.20;;;4.70;99.90;;;;;;5057353;28;20098;-81
2023/03/27 05:35:16;;;;;;;6.65;1.30;;;4.70;99.90;;;;;;5073098;28;20048;-81
2023/03/27 05:37:46;;;;;;;14.55;1.42;;;4.70;99.90;;;;;;5073421;28;20129;-81
2023/03/27 05:40:21;;;;;;;4.65;1.13;;;4.70;99.90;;;;;;5058266;28;20498;-81
2023/03/27 05:42:48;;;;;;;2.58;1.10;;;4.70;99.90;;;;;;5073637;28;20124;-81
2023/03/27 05:45:14;;;;;;;8.50;1.10;;;4.70;99.90;;;;;;5057066;28;20051;-81
2023/03/27 05:47:41;;;;;;;7.40;1.27;;;4.70;99.90;;;;;;5073234;28;20063;-81
2023/03/27 05:50:08;;;;;;;8.43;1.50;;;4.70;99.90;;;;;;5055882;28;20037;-81
2023/03/27 05:52:36;;;;;;;5.63;1.23;;;4.60;99.90;;;;;;5074644;28;20048;-81
2023/03/27 05:55:03;;;;;;;4.63;1.15;;;4.70;99.90;;;;;;5076648;28;20052;-81
2023/03/27 05:57:30;;;;;;;2.97;1.20;;;4.70;99.90;;;;;;5075455;28;20097;-81
2023/03/27 05:59:59;;;;;;;7.82;1.35;;;4.60;99.90;;;;;;5066055;28;20056;-81
2023/03/27 06:02:26;;;;;;;2.60;1.10;;;4.60;99.90;;;;;;5055241;28;20049;-81
2023/03/27 06:04:57;;;;;;;5.95;1.60;;;4.60;99.90;;;;;;5056786;28;20051;-81
2023/03/27 06:07:29;;;;;;;6.28;1.70;;;4.60;99.90;;;;;;5056281;28;20052;-81
2023/03/27 06:10:00;;;;;;;10.20;1.90;;;4.50;99.90;;;;;;5039881;28;20048;-81
2023/03/27 06:12:53;;;;;;;6.15;1.20;;;4.50;99.90;;;;;;5071939;28;20044;-81
2023/03/27 06:15:28;;;;;;;10.07;1.33;;;4.50;99.90;;;;;;5040299;28;20136;-81
2023/03/27 06:18:08;;;;;;;7.75;1.40;;;4.50;99.90;;;;;;5056729;28;20117;-81
2023/03/27 06:20:36;;;;;;;3.55;1.35;;;4.50;99.90;;;;;;5056294;28;20114;-81
2023/03/27 06:23:05;;;;;;;6.53;1.33;;;4.50;99.90;;;;;;5039987;28;20037;-81
2023/03/27 06:25:33;;;;;;;5.90;1.20;;;4.50;99.90;;;;;;5044287;28;20125;-81
2023/03/27 06:28:00;;;;;;;5.07;1.20;;;4.40;99.90;;;;;;5043686;28;20043;-80
2023/03/27 06:30:28;;;;;;;3.95;1.25;;;4.40;99.90;;;;;;5048535;28;20045;-80
2023/03/27 06:33:14;;;;;;;2.88;1.00;;;4.40;99.90;;;;;;5077883;28;20037;-80
2023/03/27 06:35:44;;;;;;;5.53;1.27;;;4.40;99.90;;;;;;5042681;28;20501;-80
2023/03/27 06:38:23;;;;;;;6.18;1.27;;;4.40;99.90;;;;;;5045820;28;20052;-80
2023/03/27 06:40:50;;;;;;;8.15;1.73;;;4.50;99.90;;;;;;5060210;28;20110;-80
2023/03/27 06:43:21;;;;;;;13.80;1.67;;;4.50;99.90;;;;;;5058636;28;20045;-80
2023/03/27 06:45:58;;;;;;;3.25;1.05;;;4.50;99.90;;;;;;5059938;28;20059;-80
2023/03/27 06:48:51;;;;;;;10.38;1.67;;;4.70;99.90;;;;;;5062413;28;20052;-80
2023/03/27 06:51:21;;;;;;;4.55;1.40;;;4.70;99.90;;;;;;5058979;28;20076;-80
2023/03/27 06:53:50;;;;;;;7.68;1.40;;;4.80;99.90;;;;;;5058110;28;20135;-81
2023/03/27 06:56:17;;;;;;;6.25;1.33;;;4.80;99.90;;;;;;5057765;28;20183;-81
2023/03/27 06:59:02;;;;;;;3.50;1.23;;;4.90;99.90;;;;;;5097911;28;20063;-80
2023/03/27 07:01:30;;;;;;;6.20;1.45;;;5.00;99.90;;;;;;5079956;28;20048;-80
2023/03/27 07:04:17;;;;;;;9.05;1.40;;;5.10;99.90;;;;;;5079232;28;20040;-81
2023/03/27 07:07:04;;;;;;;4.63;1.50;;;5.20;99.90;;;;;;5096765;28;20106;-80
2023/03/27 07:09:34;;;;;;;8.45;1.77;;;5.30;99.90;;;;;;5062550;28;20433;-81
2023/03/27 07:12:09;;;;;;;4.97;1.40;;;5.30;99.90;;;;;;5079946;28;20101;-80
2023/03/27 07:14:37;;;;;;;4.90;1.30;;;5.30;99.90;;;;;;5079860;28;20040;-80
2023/03/27 07:17:04;;;;;;;3.80;1.40;;;5.40;99.90;;;;;;5061860;28;20109;-80
2023/03/27 07:19:48;;;;;;;6.45;1.40;;;5.50;99.90;;;;;;5079671;28;20072;-80
2023/03/27 07:22:17;;;;;;;4.85;1.40;;;5.50;99.90;;;;;;5078847;28;20082;-81
2023/03/27 07:24:43;;;;;;;6.25;1.35;;;5.50;99.90;;;;;;5062934;28;20054;-81
2023/03/27 07:27:10;;;;;;;9.40;1.55;;;5.60;99.90;;;;;;5079539;28;20375;-80
2023/03/27 07:29:38;;;;;;;5.80;1.67;;;5.70;99.90;;;;;;5078401;28;20047;-81
2023/03/27 07:32:05;;;;;;;3.53;1.33;;;5.70;99.90;;;;;;5079390;28;20355;-81
2023/03/27 07:34:41;;;;;;;6.15;1.70;;;5.90;99.90;;;;;;5063400;28;20044;-81
2023/03/27 07:37:26;;;;;;;11.73;1.85;;;5.90;99.90;;;;;;5080955;28;20170;-80
2023/03/27 07:40:12;;;;;;;5.68;1.55;;;6.10;99.90;;;;;;5082533;28;20055;-80
2023/03/27 07:42:43;;;;;;;6.07;2.15;;;6.20;99.90;;;;;;5078142;28;20059;-81
2023/03/27 07:45:16;;;;;;;7.65;1.20;;;6.30;99.90;;;;;;5097143;28;20036;-81
2023/03/27 07:47:43;;;;;;;8.50;1.75;;;6.50;99.90;;;;;;5078744;28;20055;-81
2023/03/27 07:50:12;;;;;;;6.95;1.40;;;6.50;99.90;;;;;;5061879;28;20060;-81
2023/03/27 07:52:39;;;;;;;7.75;1.60;;;6.60;99.90;;;;;;5079217;28;20485;-82
2023/03/27 07:55:06;;;;;;;12.48;1.90;;;6.60;99.90;;;;;;5078791;28;20052;-84
2023/03/27 07:57:38;;;;;;;;;;;6.60;99.90;;;;;;5063226;28;20078;-84
2023/03/27 08:00:28;;;;;;;7.05;1.30;;;6.70;99.90;;;;;;5078365;28;19927;-83
2023/03/27 08:03:05;;;;;;;12.63;1.50;;;6.70;99.90;;;;;;5062880;28;20117;-83
2023/03/27 08:05:33;;;;;;;6.65;1.80;;;6.70;99.90;;;;;;5061913;28;20473;-83
2023/03/27 08:08:07;;;;;;;7.60;1.20;;;6.70;99.90;;;;;;5079135;28;20050;-83
2023/03/27 08:10:43;;;;;;;8.40;1.65;;;6.80;99.90;;;;;;5077930;28;20543;-83
2023/03/27 08:13:11;;;;;;;14.38;1.60;;;6.80;99.90;;;;;;5078817;28;20463;-83
2023/03/27 08:15:38;;;;;;;7.10;1.60;;;7.00;99.90;;;;;;5076142;28;20131;-82
2023/03/27 08:18:17;;;;;;;7.07;1.33;;;7.00;99.90;;;;;;5078169;28;20047;-82
2023/03/27 08:20:44;;;;;;;13.25;1.85;;;7.30;99.90;;;;;;5059078;28;20393;-82
2023/03/27 08:23:11;;;;;;;5.20;1.45;;;7.30;99.90;;;;;;5058536;28;20488;-84
2023/03/27 08:26:00;;;;;;;14.10;1.90;;;7.50;99.90;;;;;;5043846;28;20084;-82
2023/03/27 08:28:33;;;;;;;4.07;1.63;;;7.70;99.90;;;;;;5078010;28;20052;-84
2023/03/27 08:31:00;;;;;;;4.32;1.20;;;7.80;99.90;;;;;;5077841;28;20054;-82
2023/03/27 08:33:32;;;;;;;8.77;1.50;;;7.80;99.90;;;;;;5062402;28;20046;-84
2023/03/27 08:38:44;;;;;;;6.60;1.30;;;8.10;99.90;;;;;;5092146;28;20062;-81
2023/03/27 08:41:15;;;;;;;8.18;1.30;;;8.20;99.90;;;;;;5060611;28;20058;-82
2023/03/27 08:43:48;;;;;;;9.77;1.65;;;8.40;99.90;;;;;;5076505;28;20472;-81
2023/03/27 08:46:20;;;;;;;6.18;1.45;;;8.40;99.90;;;;;;5077225;28;20363;-81
2023/03/27 08:48:50;;;;;;;11.63;1.83;;;8.50;99.90;;;;;;5076326;28;20102;-81
2023/03/27 08:51:18;;;;;;;8.98;1.63;;;8.60;99.90;;;;;;5076714;28;20040;-82
2023/03/27 08:53:46;;;;;;;6.32;1.40;;;8.70;99.90;;;;;;5077139;28;20044;-83
2023/03/27 08:56:16;;;;;;;4.70;1.17;;;8.70;99.90;;;;;;5058879;28;20055;-83
2023/03/27 08:58:45;;;;;;;7.55;1.65;;;8.70;99.90;;;;;;5060881;28;20067;-81
2023/03/27 09:01:35;;;;;;;7.80;1.77;;;8.80;99.90;;;;;;5047692;28;20048;-81
2023/03/27 09:04:07;;;;;;;;;;;8.90;99.90;;;;;;5041249;28;20049;-80
2023/03/27 09:06:38;;;;;;;7.85;1.80;;;8.90;99.90;;;;;;5050931;28;19921;-80
2023/03/27 09:09:08;;;;;;;9.70;1.52;;;9.00;99.90;;;;;;5056696;28;20045;-82
2023/03/27 09:11:35;;;;;;;6.20;1.33;;;9.20;99.90;;;;;;5057167;28;20505;-84
2023/03/27 09:14:03;;;;;;;13.32;1.65;;;9.20;99.90;;;;;;5040823;28;20055;-82
2023/03/27 09:16:32;;;;;;;8.02;1.50;;;9.30;99.90;;;;;;5056511;28;20509;-82
2023/03/27 09:19:00;;;;;;;7.68;1.38;;;9.30;99.90;;;;;;5057079;28;20056;-82
2023/03/27 09:21:29;;;;;;;5.70;1.40;;;9.40;99.90;;;;;;5056500;28;20090;-82
2023/03/27 09:24:02;;;;;;;3.88;1.33;;;9.30;99.90;;;;;;5055262;28;20056;-84
2023/03/27 09:26:54;;;;;;;9.25;1.40;;;9.40;99.90;;;;;;5059885;28;20106;-83
2023/03/27 09:29:44;;;;;;;7.63;1.60;;;9.50;99.90;;;;;;5055755;28;20474;-82
2023/03/27 09:32:30;;;;;;;3.83;1.30;;;9.60;99.90;;;;;;5072795;28;20526;-82
2023/03/27 09:35:00;;;;;;;6.55;1.25;;;9.70;99.90;;;;;;5056298;28;20102;-80
2023/03/27 09:37:26;;;;;;;5.35;1.20;;;9.70;99.90;;;;;;5055140;28;20044;-82
2023/03/27 09:39:53;;;;;;;5.93;1.40;;;9.80;99.90;;;;;;5056368;28;20490;-82
2023/03/27 09:42:30;;;;;;;7.45;1.80;;;10.00;99.90;;;;;;5054524;28;20058;-82
2023/03/27 09:44:56;;;;;;;7.78;1.50;;;10.20;99.90;;;;;;5075896;28;20044;-82
2023/03/27 09:50:12;;;;;;;5.22;1.27;;;10.00;99.90;;;;;;5076253;28;20493;-82
2023/03/27 09:52:53;;;;;;;3.67;1.10;;;10.20;99.90;;;;;;5076815;28;20130;-82
2023/03/27 09:55:39;;;;;;;5.15;1.25;;;10.10;99.90;;;;;;5061988;28;20485;-84
2023/03/27 09:58:09;;;;;;;5.00;1.60;;;10.00;99.90;;;;;;5059970;28;20058;-82
2023/03/27 10:00:37;;;;;;;3.90;1.48;;;9.80;99.90;;;;;;5059949;28;20043;-81
2023/03/27 10:03:06;;;;;;;6.65;1.52;;;9.90;98.50;;;;;;5036925;28;20528;-82
2023/03/27 10:05:37;;;;;;;6.63;1.45;;;10.10;98.30;;;;;;5020715;28;20377;-82
2023/03/27 10:08:05;;;;;;;6.65;1.67;;;10.20;99.90;;;;;;5056107;28;20044;-82
2023/03/27 10:10:36;;;;;;;11.15;1.70;;;10.30;99.90;;;;;;5056277;28;20063;-82
2023/03/27 10:13:03;;;;;;;5.28;1.40;;;10.30;98.00;;;;;;5057073;28;20044;-83
2023/03/27 10:15:35;;;;;;;5.80;1.63;;;10.50;95.80;;;;;;5039738;28;20056;-83
2023/03/27 10:18:05;;;;;;;6.65;1.80;;;10.80;95.20;;;;;;5056438;28;20055;-83
2023/03/27 10:20:33;;;;;;;6.75;1.42;;;10.80;94.40;;;;;;5057324;28;20051;-83
2023/03/27 10:22:59;;;;;;;7.68;1.40;;;10.60;94.00;;;;;;5056244;28;20044;-82
2023/03/27 10:25:30;;;;;;;5.60;1.50;;;10.70;92.50;;;;;;5056596;28;20374;-82
2023/03/27 10:28:12;;;;;;;7.15;1.60;;;11.00;96.40;;;;;;5041948;28;20091;-82
2023/03/27 10:30:58;;;;;;;4.85;1.30;;;11.00;96.80;;;;;;5073439;28;20041;-82
2023/03/27 10:33:35;;;;;;;6.30;1.42;;;11.30;92.50;;;;;;5055963;28;20037;-82
2023/03/27 10:36:28;;;;;;;6.60;1.40;;;11.70;90.10;;;;;;5043466;28;20535;-82
2023/03/27 10:38:56;;;;;;;7.03;1.52;;;12.10;90.30;;;;;;5055826;28;20094;-82
2023/03/27 10:41:48;;;;;;;4.97;1.40;;;12.50;88.60;;;;;;5070020;28;20379;-82
2023/03/27 10:44:19;;;;;;;4.40;1.48;;;12.40;80.10;;;;;;5054830;28;20098;-82
2023/03/27 10:46:52;;;;;;;7.20;1.48;;;12.40;83.50;;;;;;5055436;28;20132;-82
2023/03/27 10:49:20;;;;;;;6.57;1.35;;;12.80;83.80;;;;;;5055244;28;20532;-83
2023/03/27 10:51:46;;;;;;;6.85;1.33;;;13.50;84.50;;;;;;5056294;28;20474;-82
2023/03/27 10:54:20;;;;;;;4.50;1.20;;;14.00;81.70;;;;;;5056485;28;20082;-82
2023/03/27 10:56:50;;;;;;;7.03;1.60;;;14.40;71.50;;;;;;5059182;28;20048;-83
2023/03/27 10:59:17;;;;;;;3.97;1.50;;;14.40;73.60;;;;;;5075927;28;20055;-82
2023/03/27 11:02:01;;;;;;;5.97;2.03;;;13.80;70.30;;;;;;5075455;28;20126;-81
2023/03/27 11:04:29;;;;;;;5.13;1.52;;;13.90;73.70;;;;;;5075837;28;20077;-81
2023/03/27 11:09:49;;;;;;;4.57;1.38;;;13.20;75.10;;;;;;5077645;28;20391;-82
2023/03/27 11:12:16;;;;;;;5.75;1.45;;;13.00;75.90;;;;;;5079802;28;20138;-83
2023/03/27 11:14:51;;;;;;;6.55;1.20;;;13.00;69.40;;;;;;5079303;28;20052;-82
2023/03/27 11:17:21;;;;;;;5.03;1.30;;;12.90;68.50;;;;;;5078624;28;20044;-82
2023/03/27 11:20:07;;;;;;;2.63;1.00;;;13.50;69.80;;;;;;5082433;28;20067;-82
2023/03/27 11:22:53;;;;;;;4.05;1.05;;;13.50;64.30;;;;;;5081488;28;20055;-82
2023/03/27 11:25:35;;;;;;;6.13;1.40;;;13.00;72.50;;;;;;5079191;28;20063;-82
2023/03/27 11:28:02;;;;;;;4.57;1.27;;;12.70;75.30;;;;;;5079320;28;20044;-83
2023/03/27 11:30:30;;;;;;;6.78;1.42;;;13.20;68.90;;;;;;5061886;28;20040;-82
2023/03/27 11:32:57;;;;;;;6.22;1.23;;;13.80;72.50;;;;;;5079336;28;20067;-83
2023/03/27 11:35:24;;;;;;;2.78;1.02;;;13.70;65.60;;;;;;5077845;28;20110;-82
2023/03/27 11:38:05;;;;;;;4.80;1.17;;;13.50;69.10;;;;;;5079397;28;20468;-82
2023/03/27 11:40:38;;;;;;;4.15;1.20;;;13.30;63.90;;;;;;5079405;28;20040;-82
2023/03/27 11:43:05;;;;;;;4.63;1.20;;;12.90;69.30;;;;;;5096171;28;20486;-82
2023/03/27 11:45:32;;;;;;;6.30;1.20;;;12.80;67.50;;;;;;5078866;28;20093;-82
2023/03/27 11:47:59;;;;;;;4.47;1.30;;;12.90;62.90;;;;;;5079113;28;20064;-85
2023/03/27 11:50:26;;;;;;;5.10;1.10;;;12.90;64.70;;;;;;5061414;28;20044;-84
2023/03/27 11:52:53;;;;;;;3.35;1.15;;;12.70;68.30;;;;;;5096985;28;20347;-82
2023/03/27 11:55:39;;;;;;;6.55;1.15;;;12.50;66.60;;;;;;5080481;28;20374;-83
2023/03/27 11:58:06;;;;;;;4.70;1.30;;;12.40;64.50;;;;;;5062608;28;20044;-86
2023/03/27 12:00:46;;;;;;;5.65;1.40;;;13.00;65.50;;;;;;5081233;28;20036;-84
2023/03/27 12:03:14;;;;;;;3.20;1.10;;;14.10;65.90;;;;;;5081951;28;20450;-86
2023/03/27 12:05:43;;;;;;;3.92;1.10;;;14.60;65.70;;;;;;5098804;28;20043;-84
2023/03/27 12:08:12;;;;;;;4.10;1.10;;;14.20;68.30;;;;;;5082686;28;20046;-85
2023/03/27 12:10:43;;;;;;;2.95;1.00;;;13.50;63.30;;;;;;5097789;28;20063;-84
2023/03/27 12:13:20;;;;;;;6.93;1.50;;;12.90;63.00;;;;;;5098975;28;20120;-84
2023/03/27 12:15:55;;;;;;;2.90;1.00;;;12.50;64.40;;;;;;5081812;28;20504;-84
2023/03/27 12:18:31;;;;;;;4.45;1.20;;;12.80;67.70;;;;;;5098863;28;20036;-85
2023/03/27 12:21:03;;;;;;;4.20;1.23;;;14.00;63.10;;;;;;5098370;28;20059;-85
2023/03/27 12:23:32;;;;;;;2.92;1.13;;;14.90;59.90;;;;;;5081311;28;20053;-86
2023/03/27 12:26:28;;;;;;;7.93;1.38;;;15.50;58.30;;;;;;5043691;28;20073;-84
2023/03/27 12:29:03;;;;;;;3.38;1.10;;;16.20;57.30;;;;;;5082078;28;20404;-86
2023/03/27 12:31:56;;;;;;;5.00;1.42;;;16.70;59.00;;;;;;5068677;28;20048;-87
2023/03/27 12:34:23;;;;;;;4.25;1.25;;;16.40;57.70;;;;;;5060951;28;20427;-87
2023/03/27 12:36:51;;;;;;;5.03;1.17;;;16.40;58.00;;;;;;5077235;28;20040;-86
2023/03/27 12:39:20;;;;;;;6.30;1.50;;;16.40;60.80;;;;;;5061781;28;20048;-86
2023/03/27 12:41:48;;;;;;;5.78;1.63;;;15.80;57.10;;;;;;5061922;28;20044;-85
2023/03/27 12:44:27;;;;;;;4.80;1.25;;;15.40;59.70;;;;;;5077642;28;20036;-85
2023/03/27 12:46:53;;;;;;;5.07;1.30;;;15.40;58.80;;;;;;5077622;28;20036;-86
2023/03/27 12:49:24;;;;;;;4.90;1.20;;;15.00;57.90;;;;;;5078219;28;20040;-87
2023/03/27 12:52:06;;;;;;;5.88;1.30;;;15.20;58.20;;;;;;5082544;28;20043;-84
2023/03/27 12:54:56;;;;;;;4.68;1.30;;;14.60;59.10;;;;;;5082444;28;20052;-86
2023/03/27 12:57:44;;;;;;;3.75;1.20;;;14.20;59.80;;;;;;5081123;28;20051;-83
2023/03/27 13:00:18;;;;;;;6.93;1.30;;;13.80;62.40;;;;;;5063290;28;20486;-83
2023/03/27 13:02:47;;;;;;;7.13;1.27;;;13.50;64.50;;;;;;5056505;28;20486;-85
2023/03/27 13:05:14;;;;;;;4.00;1.33;;;13.60;66.10;;;;;;5031764;28;20101;-85
2023/03/27 13:07:57;;;;;;;3.92;1.33;;;13.50;61.00;;;;;;5040140;28;20049;-84
2023/03/27 13:10:52;;;;;;;4.38;1.25;;;13.60;63.50;;;;;;5070601;28;20045;-84
2023/03/27 13:14:12;;;;;;;;;;;;;;;;;;;;;
2023/03/27 13:16:21;;;;;;;7.75;1.38;;;15.00;64.30;;;;;;5051523;28;20579;-85
2023/03/27 13:18:50;;;;;;;4.05;1.30;;;16.00;60.00;;;;;;5053341;28;20104;-83
2023/03/27 13:21:18;;;;;;;5.82;1.50;;;15.70;57.50;;;;;;5057262;28;20382;-82
2023/03/27 13:23:49;;;;;;;5.03;1.20;;;15.20;62.20;;;;;;5054146;28;20032;-81
2023/03/27 13:26:22;;;;;;;6.53;1.30;;;15.60;58.20;;;;;;5037925;28;20044;-81
2023/03/27 13:28:48;;;;;;;4.75;1.35;;;16.20;58.40;;;;;;5039494;28;20040;-81